createdAt,value
2018-03-06T00:00:45.285Z,21.05
2018-03-06T00:03:12.178Z,21.65
2018-03-06T00:05:38.957Z,20.83
2018-03-06T00:08:05.663Z,20.15
2018-03-06T00:10:32.318Z,20.65
2018-03-06T00:12:59.182Z,23.70
2018-03-06T00:15:25.969Z,21.55
2018-03-06T00:17:52.633Z,21.95
2018-03-06T00:20:19.588Z,21.20
2018-03-06T00:22:46.248Z,22.15
2018-03-06T00:25:13.230Z,23.08
2018-03-06T00:27:39.904Z,20.00
2018-03-06T00:30:06.579Z,20.73
2018-03-06T00:32:33.249Z,22.60
2018-03-06T00:34:59.930Z,22.65
2018-03-06T00:37:26.588Z,19.87
2018-03-06T00:39:53.267Z,20.20
2018-03-06T00:42:19.918Z,19.30
2018-03-06T00:44:46.593Z,21.65
2018-03-06T00:47:13.265Z,21.10
2018-03-06T00:49:39.949Z,18.55
2018-03-06T00:52:06.596Z,21.10
2018-03-06T00:54:33.296Z,19.85
2018-03-06T00:56:59.945Z,19.50
2018-03-06T00:59:26.603Z,18.95
2018-03-06T01:01:53.260Z,18.77
2018-03-06T01:04:19.923Z,19.00
2018-03-06T01:06:46.588Z,20.77
2018-03-06T01:09:13.249Z,20.62
2018-03-06T01:11:39.901Z,19.55
2018-03-06T01:14:06.552Z,19.48
2018-03-06T01:16:33.200Z,19.10
2018-03-06T01:18:59.848Z,19.10
2018-03-06T01:21:26.510Z,20.20
2018-03-06T01:23:53.165Z,17.60
2018-03-06T01:26:19.818Z,20.83
2018-03-06T01:28:46.472Z,21.08
2018-03-06T01:31:13.146Z,21.98
2018-03-06T01:33:39.894Z,26.15
2018-03-06T01:36:06.545Z,23.60
2018-03-06T01:38:33.228Z,22.27
2018-03-06T01:40:59.909Z,24.42
2018-03-06T01:43:26.563Z,25.27
2018-03-06T01:45:53.247Z,26.05
2018-03-06T01:48:19.896Z,23.95
2018-03-06T01:50:46.559Z,24.75
2018-03-06T01:53:13.219Z,24.73
2018-03-06T01:55:39.895Z,25.80
2018-03-06T01:58:06.542Z,25.45
2018-03-06T02:00:33.241Z,25.52
2018-03-06T02:02:59.897Z,25.85
2018-03-06T02:05:26.554Z,26.23
2018-03-06T02:07:53.246Z,26.15
2018-03-06T02:10:19.909Z,26.20
2018-03-06T02:12:46.577Z,27.40
2018-03-06T02:15:13.245Z,26.98
2018-03-06T02:17:39.887Z,28.25
2018-03-06T02:20:06.549Z,26.33
2018-03-06T02:22:33.204Z,26.58
2018-03-06T02:24:59.852Z,27.85
2018-03-06T02:27:26.504Z,29.00
2018-03-06T02:29:53.168Z,26.62
2018-03-06T02:32:19.837Z,30.73
2018-03-06T02:34:46.496Z,26.90
2018-03-06T02:37:13.139Z,31.42
2018-03-06T02:39:39.795Z,29.23
2018-03-06T02:42:06.440Z,28.50
2018-03-06T02:44:33.091Z,30.08
2018-03-06T02:46:59.762Z,29.25
2018-03-06T02:49:26.464Z,30.58
2018-03-06T02:51:53.169Z,28.95
2018-03-06T02:54:19.829Z,30.80
2018-03-06T02:56:46.505Z,32.60
2018-03-06T02:59:13.181Z,30.45
2018-03-06T03:01:39.840Z,31.80
2018-03-06T03:04:06.887Z,32.17
2018-03-06T03:06:33.559Z,31.60
2018-03-06T03:09:00.206Z,32.58
2018-03-06T03:11:26.860Z,32.17
2018-03-06T03:13:53.520Z,30.48
2018-03-06T03:16:20.169Z,35.85
2018-03-06T03:18:46.845Z,33.63
2018-03-06T03:21:13.496Z,32.13
2018-03-06T03:23:40.166Z,33.90
2018-03-06T03:26:06.816Z,35.38
2018-03-06T03:28:33.492Z,35.25
2018-03-06T03:31:00.144Z,34.90
2018-03-06T03:33:26.808Z,33.05
2018-03-06T03:35:53.458Z,34.80
2018-03-06T03:38:20.121Z,38.75
2018-03-06T03:40:46.769Z,39.45
2018-03-06T03:43:13.441Z,38.75
2018-03-06T03:45:40.098Z,37.53
2018-03-06T03:48:06.781Z,38.38
2018-03-06T03:50:33.436Z,37.30
2018-03-06T03:53:00.101Z,41.58
2018-03-06T03:55:26.752Z,40.38
2018-03-06T03:57:53.405Z,37.65
2018-03-06T04:00:20.077Z,42.42
2018-03-06T04:02:46.732Z,39.53
2018-03-06T04:05:13.409Z,42.10
2018-03-06T04:07:40.057Z,39.80
2018-03-06T04:10:06.729Z,42.65
2018-03-06T04:12:33.382Z,42.97
2018-03-06T04:15:00.050Z,43.20
2018-03-06T04:17:26.702Z,47.67
2018-03-06T04:19:53.385Z,43.17
2018-03-06T04:22:20.037Z,45.15
2018-03-06T04:24:46.709Z,43.45
2018-03-06T04:27:13.366Z,47.13
2018-03-06T04:29:40.050Z,49.38
2018-03-06T04:32:06.705Z,49.65
2018-03-06T04:34:33.359Z,45.72
2018-03-06T04:37:00.011Z,48.35
2018-03-06T04:39:26.671Z,46.40
2018-03-06T04:41:53.332Z,43.40
2018-03-06T04:44:19.993Z,46.97
2018-03-06T04:46:46.648Z,47.85
2018-03-06T04:49:13.317Z,47.08
2018-03-06T04:51:39.989Z,43.72
2018-03-06T04:54:06.640Z,47.72
2018-03-06T04:56:33.303Z,48.20
2018-03-06T04:58:59.965Z,44.42
2018-03-06T05:01:26.977Z,48.17
2018-03-06T05:03:53.850Z,47.72
2018-03-06T05:06:20.530Z,48.85
2018-03-06T05:08:47.196Z,49.22
2018-03-06T05:11:13.904Z,51.70
2018-03-06T05:13:40.561Z,50.08
2018-03-06T05:16:07.249Z,50.78
2018-03-06T05:18:33.906Z,45.95
2018-03-06T05:21:00.571Z,46.88
2018-03-06T05:23:27.233Z,49.05
2018-03-06T05:25:53.889Z,48.13
2018-03-06T05:28:20.560Z,58.13
2018-03-06T05:30:47.212Z,50.80
2018-03-06T05:33:13.875Z,56.60
2018-03-06T05:35:40.549Z,56.55
2018-03-06T05:38:07.212Z,53.72
2018-03-06T05:40:34.058Z,54.75
2018-03-06T05:43:00.757Z,53.30
2018-03-06T05:45:27.417Z,55.55
2018-03-06T05:47:54.094Z,51.47
2018-03-06T05:50:20.750Z,56.80
2018-03-06T05:52:47.430Z,55.65
2018-03-06T05:55:14.093Z,54.20
2018-03-06T05:57:40.774Z,56.92
2018-03-06T06:00:07.440Z,55.95
2018-03-06T06:02:34.105Z,55.55
2018-03-06T06:05:00.809Z,58.95
2018-03-06T06:07:27.482Z,60.45
2018-03-06T06:09:54.271Z,59.40
2018-03-06T06:12:20.938Z,56.92
2018-03-06T06:14:47.605Z,59.28
2018-03-06T06:17:14.254Z,58.53
2018-03-06T06:19:40.903Z,61.63
2018-03-06T06:22:07.557Z,64.65
2018-03-06T06:24:34.262Z,56.22
2018-03-06T06:27:00.871Z,57.72
2018-03-06T06:29:27.518Z,60.38
2018-03-06T06:31:55.832Z,61.90
2018-03-06T06:34:23.152Z,61.03
2018-03-06T06:36:50.049Z,63.03
2018-03-06T06:39:16.730Z,57.15
2018-03-06T06:41:43.394Z,65.28
2018-03-06T06:44:10.048Z,65.05
2018-03-06T06:46:36.701Z,58.87
2018-03-06T06:49:03.363Z,63.63
2018-03-06T06:51:30.016Z,63.63
2018-03-06T06:53:56.671Z,63.10
2018-03-06T06:56:23.321Z,65.80
2018-03-06T06:58:49.978Z,62.22
2018-03-06T07:01:17.012Z,63.60
2018-03-06T07:03:44.180Z,64.50
2018-03-06T07:06:11.260Z,62.00
2018-03-06T07:08:38.901Z,62.90
2018-03-06T07:11:05.975Z,60.17
2018-03-06T07:13:32.889Z,64.90
2018-03-06T07:15:59.950Z,60.80
2018-03-06T07:18:26.654Z,64.53
2018-03-06T07:20:53.316Z,61.17
2018-03-06T07:23:19.973Z,66.55
2018-03-06T07:25:46.629Z,65.07
2018-03-06T07:28:13.272Z,61.30
2018-03-06T07:30:39.918Z,62.05
2018-03-06T07:33:06.570Z,59.05
2018-03-06T07:35:33.217Z,64.62
2018-03-06T07:37:59.870Z,65.47
2018-03-06T07:40:26.526Z,53.72
2018-03-06T07:42:53.176Z,62.92
2018-03-06T07:45:19.890Z,61.08
2018-03-06T07:47:46.521Z,50.88
2018-03-06T07:50:13.241Z,58.35
2018-03-06T07:52:39.886Z,60.65
2018-03-06T07:55:06.542Z,63.80
2018-03-06T07:57:33.246Z,65.45
2018-03-06T07:59:59.916Z,69.43
2018-03-06T08:02:26.618Z,71.57
2018-03-06T08:04:53.261Z,69.18
2018-03-06T08:07:19.917Z,70.40
2018-03-06T08:09:46.592Z,72.20
2018-03-06T08:12:13.250Z,77.32
2018-03-06T08:14:39.911Z,77.55
2018-03-06T08:17:06.577Z,77.50
2018-03-06T08:19:33.225Z,72.78
2018-03-06T08:21:59.896Z,78.18
2018-03-06T08:24:26.584Z,77.65
2018-03-06T08:26:53.242Z,81.43
2018-03-06T08:29:19.885Z,80.70
2018-03-06T08:31:46.534Z,81.50
2018-03-06T08:36:45.353Z,79.40
2018-03-06T08:39:12.015Z,77.23
2018-03-06T08:41:38.662Z,83.07
2018-03-06T08:44:05.322Z,80.37
2018-03-06T08:46:31.978Z,80.90
2018-03-06T08:48:58.613Z,77.37
2018-03-06T08:51:25.278Z,78.83
2018-03-06T08:53:51.952Z,81.90
2018-03-06T08:56:18.592Z,83.43
2018-03-06T08:58:45.265Z,85.13
2018-03-06T09:01:11.927Z,82.33
2018-03-06T09:03:38.606Z,82.77
2018-03-06T09:06:05.249Z,79.47
2018-03-06T09:08:31.916Z,81.93
2018-03-06T09:10:58.569Z,80.40
2018-03-06T09:13:25.249Z,79.67
2018-03-06T09:15:51.906Z,79.97
2018-03-06T09:18:18.579Z,78.50
2018-03-06T09:20:45.218Z,80.40
2018-03-06T09:23:11.889Z,81.73
2018-03-06T09:25:38.525Z,74.33
2018-03-06T09:28:05.216Z,79.57
2018-03-06T09:30:31.852Z,80.73
2018-03-06T09:32:58.539Z,78.17
2018-03-06T09:35:25.208Z,76.90
2018-03-06T09:37:51.856Z,79.83
2018-03-06T09:40:18.649Z,80.40
2018-03-06T09:42:45.289Z,78.40
2018-03-06T09:45:11.949Z,75.30
2018-03-06T09:47:38.603Z,75.53
2018-03-06T09:50:05.262Z,77.40
2018-03-06T09:52:31.913Z,76.30
2018-03-06T09:54:58.579Z,77.60
2018-03-06T09:57:25.225Z,71.13
2018-03-06T09:59:51.877Z,74.27
2018-03-06T10:02:18.513Z,76.97
2018-03-06T10:04:45.180Z,72.43
2018-03-06T10:07:11.875Z,75.47
2018-03-06T10:09:38.571Z,76.13
2018-03-06T10:12:05.247Z,76.00
2018-03-06T10:14:31.943Z,76.37
2018-03-06T10:16:58.633Z,77.53
2018-03-06T10:19:25.339Z,75.13
2018-03-06T10:21:52.034Z,71.27
2018-03-06T10:24:18.732Z,71.27
2018-03-06T10:26:45.409Z,71.90
2018-03-06T10:29:12.122Z,67.87
2018-03-06T10:31:38.878Z,68.77
2018-03-06T10:34:05.554Z,70.27
2018-03-06T10:36:32.253Z,69.80
2018-03-06T10:38:58.970Z,75.60
2018-03-06T10:41:25.672Z,71.70
2018-03-06T10:43:52.395Z,67.27
2018-03-06T10:46:19.047Z,73.87
2018-03-06T10:48:45.746Z,67.77
2018-03-06T10:51:12.422Z,69.23
2018-03-06T10:53:39.105Z,69.27
2018-03-06T10:56:05.799Z,69.73
2018-03-06T10:58:32.474Z,71.40
2018-03-06T11:00:59.186Z,71.30
2018-03-06T11:03:25.875Z,69.30
2018-03-06T11:05:52.554Z,69.05
2018-03-06T11:08:19.252Z,69.82
2018-03-06T11:10:45.893Z,66.40
2018-03-06T11:13:12.540Z,67.10
2018-03-06T11:15:39.201Z,67.10
2018-03-06T11:18:05.843Z,68.50
2018-03-06T11:20:33.404Z,72.00
2018-03-06T11:23:00.043Z,69.70
2018-03-06T11:25:26.691Z,74.20
2018-03-06T11:27:53.330Z,68.57
2018-03-06T11:30:19.966Z,72.23
2018-03-06T11:32:46.617Z,68.53
2018-03-06T11:35:13.289Z,69.67
2018-03-06T11:37:39.997Z,69.47
2018-03-06T11:40:06.647Z,73.07
2018-03-06T11:42:33.311Z,72.67
2018-03-06T11:44:59.965Z,72.97
2018-03-06T11:47:26.625Z,73.10
2018-03-06T11:49:53.310Z,72.32
2018-03-06T11:52:19.961Z,69.20
2018-03-06T11:54:46.613Z,68.28
2018-03-06T11:57:13.275Z,70.32
2018-03-06T11:59:39.925Z,67.40
2018-03-06T12:02:06.577Z,66.20
2018-03-06T12:04:33.233Z,69.60
2018-03-06T12:06:59.893Z,69.20
2018-03-06T12:09:26.541Z,63.40
2018-03-06T12:11:53.181Z,60.22
2018-03-06T12:14:19.826Z,65.28
2018-03-06T12:16:46.481Z,65.75
2018-03-06T12:19:13.126Z,64.18
2018-03-06T12:21:39.785Z,63.17
2018-03-06T12:24:06.437Z,63.20
2018-03-06T12:26:33.114Z,63.08
2018-03-06T12:28:59.750Z,63.85
2018-03-06T12:31:26.406Z,62.30
2018-03-06T12:33:53.058Z,63.13
2018-03-06T12:36:19.705Z,59.50
2018-03-06T12:38:46.345Z,61.92
2018-03-06T12:41:12.998Z,62.15
2018-03-06T12:43:39.641Z,65.10
2018-03-06T12:46:06.285Z,60.75
2018-03-06T12:48:32.926Z,66.35
2018-03-06T12:50:59.570Z,66.72
2018-03-06T12:53:26.218Z,60.38
2018-03-06T12:55:52.901Z,63.65
2018-03-06T12:58:19.544Z,63.80
2018-03-06T13:00:46.197Z,65.85
2018-03-06T13:03:12.841Z,65.53
2018-03-06T13:05:39.485Z,60.70
2018-03-06T13:08:06.126Z,69.57
2018-03-06T13:10:32.770Z,62.70
2018-03-06T13:12:59.415Z,63.65
2018-03-06T13:15:26.062Z,65.25
2018-03-06T13:17:52.750Z,65.65
2018-03-06T13:20:19.380Z,62.45
2018-03-06T13:22:46.030Z,69.57
2018-03-06T13:25:12.677Z,61.97
2018-03-06T13:27:39.324Z,62.88
2018-03-06T13:30:05.976Z,62.47
2018-03-06T13:32:32.629Z,63.50
2018-03-06T13:34:59.318Z,67.07
2018-03-06T13:37:25.983Z,63.15
2018-03-06T13:39:52.751Z,64.95
2018-03-06T13:42:19.364Z,64.37
2018-03-06T13:44:46.034Z,65.55
2018-03-06T13:47:12.696Z,68.10
2018-03-06T13:49:39.366Z,65.15
2018-03-06T13:52:06.010Z,65.28
2018-03-06T13:54:32.676Z,65.05
2018-03-06T13:56:59.324Z,61.90
2018-03-06T13:59:25.988Z,63.53
2018-03-06T14:01:52.632Z,60.22
2018-03-06T14:04:19.295Z,60.00
2018-03-06T14:06:45.935Z,63.87
2018-03-06T14:09:12.595Z,64.65
2018-03-06T14:11:39.255Z,67.35
2018-03-06T14:14:05.935Z,70.82
2018-03-06T14:16:32.587Z,68.57
2018-03-06T14:18:59.229Z,65.35
2018-03-06T14:21:25.909Z,63.28
2018-03-06T14:23:52.553Z,66.37
2018-03-06T14:26:19.230Z,65.65
2018-03-06T14:28:45.874Z,61.85
2018-03-06T14:31:12.533Z,64.32
2018-03-06T14:33:39.201Z,68.62
2018-03-06T14:36:05.871Z,66.70
2018-03-06T14:38:33.396Z,63.90
2018-03-06T14:41:00.082Z,76.68
2018-03-06T14:43:26.737Z,74.97
2018-03-06T14:45:53.435Z,74.12
2018-03-06T14:48:20.090Z,74.70
2018-03-06T14:50:46.758Z,74.30
2018-03-06T14:53:13.767Z,70.25
2018-03-06T14:55:40.487Z,74.90
2018-03-06T14:58:07.158Z,70.87
2018-03-06T15:00:33.836Z,66.40
2018-03-06T15:03:00.921Z,67.37
2018-03-06T15:05:27.620Z,66.50
2018-03-06T15:07:54.745Z,60.80
2018-03-06T15:10:23.206Z,64.93
2018-03-06T15:12:50.236Z,59.35
2018-03-06T15:15:17.190Z,62.92
2018-03-06T15:17:44.170Z,63.33
2018-03-06T15:20:12.212Z,64.15
2018-03-06T15:22:39.235Z,60.97
2018-03-06T15:25:06.377Z,67.43
2018-03-06T15:27:33.081Z,63.25
2018-03-06T15:30:00.319Z,64.30
2018-03-06T15:32:27.534Z,63.90
2018-03-06T15:34:54.687Z,59.08
2018-03-06T15:37:21.669Z,63.70
2018-03-06T15:39:48.736Z,59.88
2018-03-06T15:42:17.162Z,64.07
2018-03-06T15:44:44.214Z,65.35
2018-03-06T15:47:10.919Z,63.67
2018-03-06T15:49:37.607Z,64.87
2018-03-06T15:52:04.522Z,63.05
2018-03-06T15:54:31.541Z,62.85
2018-03-06T15:56:59.489Z,63.08
2018-03-06T15:59:27.786Z,63.70
2018-03-06T16:01:55.124Z,62.08
2018-03-06T16:04:22.179Z,61.47
2018-03-06T16:06:49.095Z,60.42
2018-03-06T16:09:16.144Z,62.75
2018-03-06T16:11:42.851Z,61.65
2018-03-06T16:14:09.879Z,62.40
2018-03-06T16:16:36.946Z,61.97
2018-03-06T16:19:03.979Z,62.85
2018-03-06T16:21:31.094Z,65.80
2018-03-06T16:23:58.193Z,60.17
2018-03-06T16:26:25.286Z,62.90
2018-03-06T16:28:52.203Z,60.20
2018-03-06T16:31:18.857Z,64.32
2018-03-06T16:33:45.557Z,62.10
2018-03-06T16:36:12.489Z,61.50
2018-03-06T16:38:39.186Z,60.47
2018-03-06T16:41:05.843Z,61.97
2018-03-06T16:43:32.510Z,58.65
2018-03-06T16:45:59.160Z,63.38
2018-03-06T16:48:25.834Z,55.72
2018-03-06T16:50:52.477Z,58.13
2018-03-06T16:53:19.162Z,65.05
2018-03-06T16:55:45.805Z,62.20
2018-03-06T16:58:12.491Z,64.18
2018-03-06T17:00:39.159Z,60.67
2018-03-06T17:03:05.809Z,57.35
2018-03-06T17:05:32.454Z,62.47
2018-03-06T17:07:59.125Z,62.25
2018-03-06T17:10:25.778Z,60.70
2018-03-06T17:12:52.443Z,56.90
2018-03-06T17:15:19.093Z,57.67
2018-03-06T17:17:45.737Z,57.85
2018-03-06T17:20:12.382Z,58.22
2018-03-06T17:22:39.061Z,54.58
2018-03-06T17:25:05.717Z,56.05
2018-03-06T17:27:32.379Z,55.25
2018-03-06T17:29:59.018Z,53.42
2018-03-06T17:32:25.665Z,51.70
2018-03-06T17:34:52.326Z,52.53
2018-03-06T17:37:18.993Z,56.45
2018-03-06T17:39:46.445Z,54.50
2018-03-06T17:42:14.653Z,53.25
2018-03-06T17:44:41.724Z,53.33
2018-03-06T17:47:08.365Z,52.47
2018-03-06T17:49:35.048Z,53.47
2018-03-06T17:52:01.695Z,50.90
2018-03-06T17:54:28.352Z,55.20
2018-03-06T17:56:55.018Z,52.62
2018-03-06T17:59:21.665Z,54.08
2018-03-06T18:01:48.372Z,55.67
2018-03-06T18:04:15.037Z,58.70
2018-03-06T18:06:41.852Z,56.60
2018-03-06T18:09:08.578Z,55.03
2018-03-06T18:11:35.221Z,58.83
2018-03-06T18:14:01.862Z,55.97
2018-03-06T18:16:28.655Z,59.30
2018-03-06T18:18:55.778Z,57.03
2018-03-06T18:21:22.704Z,59.05
2018-03-06T18:23:49.359Z,57.70
2018-03-06T18:26:16.022Z,55.10
2018-03-06T18:28:42.699Z,55.12
2018-03-06T18:31:09.359Z,58.25
2018-03-06T18:33:36.024Z,57.03
2018-03-06T18:36:02.683Z,57.75
2018-03-06T18:38:29.330Z,59.10
2018-03-06T18:40:55.983Z,59.08
2018-03-06T18:43:22.636Z,56.92
2018-03-06T18:45:49.296Z,57.17
2018-03-06T18:48:15.968Z,57.85
2018-03-06T18:50:48.453Z,59.05
2018-03-06T18:53:15.129Z,54.42
2018-03-06T18:55:41.782Z,55.50
2018-03-06T18:58:08.478Z,57.97
2018-03-06T19:00:52.967Z,53.83
2018-03-06T19:03:25.275Z,54.13
2018-03-06T19:05:57.792Z,51.92
2018-03-06T19:08:24.452Z,56.95
2018-03-06T19:10:51.108Z,56.20
2018-03-06T19:13:17.817Z,52.22
2018-03-06T19:15:44.466Z,54.63
2018-03-06T19:18:11.624Z,55.17
2018-03-06T19:20:38.270Z,51.75
2018-03-06T19:23:04.932Z,58.55
2018-03-06T19:25:31.577Z,59.88
2018-03-06T19:27:58.254Z,55.38
2018-03-06T19:30:24.897Z,55.90
2018-03-06T19:32:51.577Z,59.47
2018-03-06T19:35:18.237Z,59.00
2018-03-06T19:37:44.903Z,55.42
2018-03-06T19:40:11.552Z,60.38
2018-03-06T19:42:38.206Z,59.65
2018-03-06T19:45:04.877Z,58.67
2018-03-06T19:47:31.525Z,57.22
2018-03-06T19:49:58.197Z,56.03
2018-03-06T19:52:24.857Z,60.22
2018-03-06T19:54:51.588Z,58.30
2018-03-06T19:57:18.271Z,56.95
2018-03-06T19:59:44.926Z,56.55
2018-03-06T20:02:11.583Z,57.30
2018-03-06T20:04:38.248Z,56.15
2018-03-06T20:07:04.906Z,55.45
2018-03-06T20:09:31.650Z,56.30
2018-03-06T20:11:58.347Z,54.92
2018-03-06T20:14:30.731Z,60.10
2018-03-06T20:16:57.435Z,56.47
2018-03-06T20:19:29.699Z,55.33
2018-03-06T20:21:56.353Z,56.92
2018-03-06T20:24:28.725Z,58.90
2018-03-06T20:26:55.392Z,56.10
2018-03-06T20:29:22.062Z,56.58
2018-03-06T20:31:54.362Z,56.45
2018-03-06T20:34:21.029Z,57.25
2018-03-06T20:36:47.677Z,56.45
2018-03-06T20:39:21.230Z,57.60
2018-03-06T20:41:47.917Z,58.15
2018-03-06T20:44:14.568Z,57.70
2018-03-06T20:46:46.935Z,56.88
2018-03-06T20:49:13.581Z,59.03
2018-03-06T20:51:40.230Z,56.95
2018-03-06T20:54:12.685Z,57.15
2018-03-06T20:56:39.384Z,57.88
2018-03-06T20:59:06.056Z,61.67
2018-03-06T21:01:32.703Z,59.70
2018-03-06T21:03:59.352Z,59.15
2018-03-06T21:06:25.999Z,58.67
2018-03-06T21:08:52.663Z,58.08
2018-03-06T21:11:19.312Z,61.55
2018-03-06T21:13:46.061Z,59.22
2018-03-06T21:16:12.755Z,58.35
2018-03-06T21:18:44.501Z,60.10
2018-03-06T21:21:11.162Z,61.00
2018-03-06T21:23:37.877Z,58.30
2018-03-06T21:26:04.538Z,59.03
2018-03-06T21:28:31.193Z,56.17
2018-03-06T21:30:57.949Z,59.40
2018-03-06T21:33:24.594Z,58.55
2018-03-06T21:35:51.262Z,58.42
2018-03-06T21:38:17.926Z,60.33
2018-03-06T21:40:44.575Z,57.65
2018-03-06T21:43:11.252Z,54.42
2018-03-06T21:45:37.918Z,57.42
2018-03-06T21:48:04.574Z,60.58
2018-03-06T21:50:31.242Z,58.10
2018-03-06T21:52:57.897Z,57.75
2018-03-06T21:55:24.546Z,57.38
2018-03-06T21:57:51.196Z,59.08
2018-03-06T22:00:17.836Z,58.25
2018-03-06T22:02:44.498Z,57.50
2018-03-06T22:05:11.146Z,61.05
2018-03-06T22:07:37.813Z,59.72
2018-03-06T22:10:04.470Z,58.58
2018-03-06T22:12:31.169Z,58.50
2018-03-06T22:14:57.823Z,60.83
2018-03-06T22:17:24.474Z,62.83
2018-03-06T22:19:51.126Z,60.25
2018-03-06T22:22:17.802Z,58.80
2018-03-06T22:24:44.461Z,60.92
2018-03-06T22:27:11.116Z,65.25
2018-03-06T22:29:37.761Z,63.78
2018-03-06T22:32:04.421Z,59.38
2018-03-06T22:34:31.069Z,65.32
2018-03-06T22:36:57.729Z,61.00
2018-03-06T22:39:24.544Z,65.87
2018-03-06T22:41:51.309Z,59.72
2018-03-06T22:44:17.959Z,61.20
2018-03-06T22:46:44.625Z,65.50
2018-03-06T22:49:11.299Z,62.60
2018-03-06T22:51:37.947Z,66.70
2018-03-06T22:54:04.614Z,62.62
2018-03-06T22:56:31.252Z,61.95
2018-03-06T22:58:59.151Z,67.10
2018-03-06T23:01:25.861Z,64.97
2018-03-06T23:03:52.529Z,65.47
2018-03-06T23:06:19.176Z,62.80
2018-03-06T23:08:45.866Z,63.78
2018-03-06T23:11:12.524Z,62.97
2018-03-06T23:13:39.188Z,62.50
2018-03-06T23:16:05.853Z,67.05
2018-03-06T23:18:32.517Z,67.47
2018-03-06T23:20:59.178Z,67.25
2018-03-06T23:23:25.848Z,66.97
2018-03-06T23:25:52.497Z,66.18
2018-03-06T23:28:19.171Z,62.50
2018-03-06T23:30:45.816Z,60.20
2018-03-06T23:33:12.473Z,64.62
2018-03-06T23:35:39.125Z,64.80
2018-03-06T23:38:05.790Z,66.80
2018-03-06T23:40:32.432Z,62.47
2018-03-06T23:42:59.094Z,68.75
2018-03-06T23:45:25.738Z,62.13
2018-03-06T23:47:52.450Z,62.10
2018-03-06T23:50:19.089Z,65.85
2018-03-06T23:52:45.758Z,66.37
2018-03-06T23:55:12.401Z,67.97
2018-03-06T23:57:39.040Z,64.25
